.
WxDataArchive / Data Records for 2012-12-10
2012-12-09 December 2012 2012-12-11

Data Records for Monday, 10 December 2012

Time	Temp	Chill	HIndex	Humid	Dewpt	 Wind 	HiWind	WindDir	Rain 	Barom 
-----	----	-----	------	-----	-----	------	------	-------	-----	----- 
00:00	44.3	44.3	44.3	97	43.5	0	2	90	0.00	29.672 
00:05	44.6	44.6	44.6	97	43.8	1	2	90	0.00	29.672 
00:10	44.8	44.8	44.8	97	44.0	1	3	90	0.00	29.672 
00:15	44.9	44.9	44.9	97	44.1	1	2	90	0.00	29.671 
00:20	45.1	45.1	45.1	97	44.3	1	2	90	0.00	29.671 
00:25	45.2	45.2	45.2	97	44.4	1	2	90	0.00	29.671 
00:30	45.2	45.2	45.2	97	44.4	1	3	90	0.00	29.672 
00:35	45.2	45.2	45.2	97	44.4	1	2	90	0.00	29.672 
00:40	45.2	45.2	45.2	97	44.4	1	3	90	0.00	29.672 
00:45	45.1	45.1	45.1	97	44.3	1	2	90	0.00	29.673 
00:50	45.1	45.1	45.1	97	44.3	0	3	90	0.00	29.673 
00:55	45.1	45.1	45.1	97	44.3	1	4	90	0.00	29.673 
01:00	45.1	45.1	45.1	97	44.3	1	2	90	0.00	29.674 
01:05	44.9	44.9	44.9	97	44.1	0	2	90	0.00	29.674 
01:10	44.9	44.9	44.9	97	44.1	1	5	90	0.00	29.674 
01:15	44.9	44.9	44.9	97	44.1	2	5	248	0.00	29.665 
01:20	44.8	44.8	44.8	97	44.0	1	3	248	0.00	29.665 
01:25	44.8	44.8	44.8	97	44.0	1	3	248	0.00	29.665 
01:30	44.5	44.5	44.5	97	43.7	1	4	270	0.00	29.663 
01:35	44.2	44.2	44.2	97	43.4	1	4	292	0.00	29.663 
01:40	44.1	44.1	44.1	97	43.3	1	3	292	0.00	29.663 
01:45	43.9	43.9	43.9	97	43.1	1	4	292	0.00	29.670 
01:50	43.8	43.8	43.8	97	43.0	0	2	338	0.00	29.670 
01:55	43.6	43.6	43.6	97	42.8	1	3	338	0.00	29.670 
02:00	43.2	43.2	43.2	97	42.4	2	4	270	0.00	29.673 
02:05	43.1	43.1	43.1	97	42.3	1	4	0	0.00	29.673 
02:10	42.8	42.8	42.8	97	42.0	1	4	270	0.00	29.673 
02:15	42.5	42.5	42.5	97	41.7	1	3	270	0.00	29.675 
02:20	42.3	42.3	42.3	97	41.5	1	5	248	0.00	29.675 
02:25	42.2	42.2	42.2	97	41.4	1	4	248	0.00	29.675 
02:30	42.1	42.1	42.1	97	41.3	2	6	248	0.00	29.685 
02:35	41.9	41.9	41.9	97	41.1	2	4	248	0.00	29.685 
02:40	41.6	41.6	41.6	97	40.8	2	6	270	0.00	29.685 
02:45	41.3	41.3	41.3	97	40.5	2	4	248	0.00	29.682 
02:50	41.2	41.2	41.2	97	40.4	1	4	270	0.00	29.682 
02:55	41.1	41.1	41.1	97	40.3	2	5	270	0.00	29.682 
03:00	40.9	40.9	40.9	97	40.1	1	3	270	0.00	29.677 
03:05	40.8	40.8	40.8	97	40.0	2	6	270	0.00	29.677 
03:10	40.5	40.5	40.5	97	39.7	3	7	248	0.00	29.677 
03:15	40.3	40.3	40.3	97	39.5	2	6	248	0.00	29.689 
03:20	40.2	40.2	40.2	97	39.4	1	4	248	0.00	29.689 
03:25	40.1	40.1	40.1	97	39.3	2	5	248	0.00	29.689 
03:30	40.1	40.1	40.1	97	39.3	1	3	248	0.00	29.692 
03:35	39.9	39.9	39.9	97	39.1	1	3	270	0.00	29.692 
03:40	39.8	39.8	39.8	97	39.0	1	3	270	0.00	29.692 
03:45	39.6	39.6	39.6	97	38.8	1	3	270	0.00	29.684 
03:50	39.3	39.3	39.3	96	38.3	2	7	248	0.00	29.684 
03:55	39.1	39.1	39.1	96	38.1	3	11	248	0.00	29.684 
04:00	38.8	38.8	38.8	96	37.8	3	11	270	0.00	29.689 
04:05	38.6	38.6	38.6	96	37.6	3	7	248	0.00	29.689 
04:10	38.5	38.5	38.5	96	37.5	3	9	248	0.00	29.689 
04:15	38.3	38.3	38.3	96	37.3	2	6	270	0.00	29.695 
04:20	38.3	38.3	38.3	96	37.3	2	4	270	0.00	29.695 
04:25	38.3	38.3	38.3	96	37.3	2	7	270	0.00	29.695 
04:30	38.2	38.2	38.2	96	37.2	3	5	248	0.00	29.687 
04:35	38.2	38.2	38.2	96	37.2	2	5	270	0.00	29.687 
04:40	38.0	38.0	38.0	96	37.0	2	5	248	0.00	29.687 
04:45	37.8	37.8	37.8	96	36.8	2	4	292	0.00	29.689 
04:50	37.6	37.6	37.6	96	36.6	2	5	292	0.00	29.689 
04:55	37.6	37.6	37.6	96	36.6	2	4	248	0.00	29.689 
05:00	37.5	37.5	37.5	96	36.5	2	5	270	0.00	29.690 
05:05	37.5	37.5	37.5	95	36.2	2	5	248	0.00	29.690 
05:10	37.5	37.5	37.5	95	36.2	1	3	248	0.00	29.690 
05:15	37.5	37.5	37.5	95	36.2	1	5	248	0.00	29.690 
05:20	37.5	37.5	37.5	95	36.2	1	4	248	0.00	29.690 
05:25	37.5	37.5	37.5	94	35.9	2	6	270	0.00	29.690 
05:30	37.5	37.5	37.5	94	35.9	1	5	248	0.00	29.694 
05:35	37.5	37.5	37.5	94	35.9	2	4	248	0.00	29.694 
05:40	37.5	37.5	37.5	93	35.7	2	5	248	0.00	29.694 
05:45	37.5	37.5	37.5	93	35.7	2	5	248	0.00	29.690 
05:50	37.6	37.6	37.6	93	35.8	1	3	248	0.00	29.690 
05:55	37.5	37.5	37.5	92	35.4	1	3	248	0.00	29.690 
06:00	37.6	37.6	37.6	92	35.5	1	3	248	0.00	29.685 
06:05	37.6	37.6	37.6	92	35.5	1	4	248	0.00	29.685 
06:10	37.5	37.5	37.5	91	35.1	2	5	292	0.00	29.685 
06:15	37.3	37.3	37.3	90	34.6	3	7	270	0.00	29.680 
06:20	37.3	37.3	37.3	89	34.4	2	7	270	0.00	29.680 
06:25	37.3	37.3	37.3	88	34.1	3	6	248	0.00	29.680 
06:30	37.3	37.3	37.3	87	33.8	2	7	248	0.00	29.691 
06:35	37.3	37.3	37.3	86	33.5	2	6	248	0.00	29.691 
06:40	37.2	37.2	37.2	85	33.1	3	7	248	0.00	29.691 
06:45	37.2	37.2	37.2	85	33.1	1	3	248	0.00	29.694 
06:50	37.0	37.0	37.0	84	32.6	2	6	248	0.00	29.694 
06:55	36.9	36.9	36.9	84	32.5	1	3	270	0.00	29.694 
07:00	36.8	36.8	36.8	84	32.4	2	5	270	0.00	29.693 
07:05	36.6	36.6	36.6	84	32.2	2	4	270	0.00	29.693 
07:10	36.6	36.6	36.6	84	32.2	2	5	248	0.00	29.693 
07:15	36.5	36.5	36.5	84	32.1	2	5	248	0.00	29.694 
07:20	36.5	36.5	36.5	84	32.1	1	4	270	0.00	29.694 
07:25	36.3	36.3	36.3	84	31.9	1	3	270	0.00	29.694 
07:30	36.3	36.3	36.3	84	31.9	1	3	270	0.00	29.697 
07:35	36.3	36.3	36.3	84	31.9	0	1	270	0.00	29.697 
07:40	36.3	36.3	36.3	84	31.9	0	2	270	0.00	29.697 
07:45	36.3	36.3	36.3	84	31.9	1	3	270	0.00	29.709 
07:50	36.2	36.2	36.2	84	31.8	0	2	270	0.00	29.709 
07:55	36.2	36.2	36.2	84	31.8	0	4	270	0.00	29.709 
08:00	36.3	36.3	36.3	84	31.9	0	3	270	0.00	29.715 
08:05	36.3	36.3	36.3	84	31.9	0	2	270	0.00	29.715 
08:10	36.3	36.3	36.3	84	31.9	0	3	270	0.00	29.715 
08:15	36.3	36.3	36.3	84	31.9	0	2	270	0.00	29.717 
08:20	36.3	36.3	36.3	85	32.2	0	3	270	0.00	29.717 
08:25	36.3	36.3	36.3	85	32.2	1	3	270	0.00	29.717 
08:30	36.5	36.5	36.5	85	32.4	0	2	270	0.00	29.715 
08:35	36.5	36.5	36.5	84	32.1	1	3	270	0.00	29.715 
08:40	36.5	36.5	36.5	84	32.1	1	3	270	0.00	29.715 
08:45	36.6	36.6	36.6	84	32.2	0	1	270	0.00	29.717 
08:50	36.6	36.6	36.6	84	32.2	1	3	315	0.00	29.717 
08:55	36.6	36.6	36.6	84	32.2	1	3	270	0.00	29.717 
09:00	36.6	36.6	36.6	84	32.2	1	2	270	0.00	29.718 
09:05	36.6	36.6	36.6	84	32.2	1	4	315	0.00	29.718 
09:10	36.6	36.6	36.6	84	32.2	1	3	315	0.00	29.718 
09:15	36.6	36.6	36.6	84	32.2	1	3	248	0.00	29.717 
09:20	36.5	36.5	36.5	83	31.8	2	5	248	0.00	29.717 
09:25	36.5	36.5	36.5	83	31.8	1	4	248	0.00	29.717 
09:30	36.3	36.3	36.3	83	31.6	2	6	270	0.00	29.720 
09:35	36.3	36.3	36.3	82	31.3	1	3	270	0.00	29.720 
09:40	36.3	36.3	36.3	83	31.6	1	6	270	0.00	29.720 
09:45	36.2	36.2	36.2	83	31.5	2	4	270	0.00	29.724 
09:50	36.2	36.2	36.2	83	31.5	1	3	315	0.00	29.724 
09:55	36.0	36.0	36.0	83	31.3	1	5	270	0.00	29.724 
10:00	35.9	35.9	35.9	83	31.2	1	3	292	0.00	29.727 
10:05	35.8	35.8	35.8	83	31.2	1	4	270	0.00	29.727 
10:10	35.6	35.6	35.6	83	31.0	1	5	270	0.00	29.727 
10:15	35.6	35.6	35.6	83	31.0	1	4	338	0.00	29.729 
10:20	35.6	35.6	35.6	83	31.0	1	3	270	0.00	29.729 
10:25	35.5	35.5	35.5	82	30.6	2	4	315	0.00	29.729 
10:30	35.2	35.2	35.2	82	30.3	2	4	292	0.00	29.743 
10:35	35.2	35.2	35.2	82	30.3	2	4	270	0.00	29.743 
10:40	35.0	35.0	35.0	82	30.1	1	4	315	0.00	29.743 
10:45	35.0	35.0	35.0	82	30.1	1	4	248	0.00	29.745 
10:50	34.9	34.9	34.9	82	30.0	3	7	270	0.00	29.745 
10:55	34.7	34.7	34.7	82	29.8	2	4	270	0.00	29.745 
11:00	34.6	34.6	34.6	82	29.7	2	4	248	0.00	29.749 
11:05	34.6	34.6	34.6	83	30.0	1	3	248	0.00	29.749 
11:10	34.7	34.7	34.7	84	30.4	1	2	248	0.00	29.749 
11:15	34.9	34.9	34.9	83	30.3	2	4	248	0.00	29.744 
11:20	34.7	34.7	34.7	83	30.1	3	6	270	0.00	29.744 
11:25	34.4	34.4	34.4	83	29.8	2	4	270	0.00	29.744 
11:30	34.3	34.3	34.3	84	30.0	2	4	270	0.00	29.742 
11:35	34.1	34.1	34.1	84	29.8	2	4	270	0.00	29.742 
11:40	34.0	34.0	34.0	83	29.4	2	4	225	0.00	29.742 
11:45	33.8	33.8	33.8	83	29.2	2	4	270	0.00	29.738 
11:50	33.8	33.8	33.8	83	29.2	1	3	248	0.00	29.738 
11:55	34.0	34.0	34.0	83	29.4	1	3	248	0.00	29.738 
12:00	34.0	34.0	34.0	83	29.4	2	3	248	0.00	29.732 
12:05	34.0	34.0	34.0	82	29.1	2	4	248	0.00	29.732 
12:10	34.0	34.0	34.0	82	29.1	2	4	270	0.00	29.732 
12:15	34.1	34.1	34.1	82	29.2	1	4	248	0.00	29.729 
12:20	34.1	34.1	34.1	82	29.2	1	3	248	0.00	29.729 
12:25	34.3	34.3	34.3	81	29.1	2	4	248	0.00	29.729 
12:30	34.3	34.3	34.3	81	29.1	1	3	248	0.00	29.726 
12:35	34.3	34.3	34.3	81	29.1	1	3	270	0.00	29.726 
12:40	34.3	34.3	34.3	81	29.1	1	5	270	0.00	29.726 
12:45	34.4	34.4	34.4	81	29.2	1	4	315	0.00	29.717 
12:50	34.6	34.6	34.6	81	29.4	2	4	248	0.00	29.717 
12:55	34.6	34.6	34.6	81	29.4	1	3	248	0.00	29.717 
13:00	34.1	34.1	34.1	81	28.9	2	5	248	0.00	29.726 
13:05	34.1	34.1	34.1	82	29.2	1	4	248	0.00	29.726 
13:10	34.0	34.0	34.0	82	29.1	1	4	248	0.00	29.726 
13:15	33.8	33.8	33.8	83	29.2	2	5	248	0.00	29.725 
13:20	33.7	33.7	33.7	83	29.1	2	4	248	0.00	29.725 
13:25	33.5	33.5	33.5	84	29.2	1	5	248	0.00	29.725 
13:30	33.5	33.5	33.5	84	29.2	2	3	248	0.00	29.727 
13:35	33.4	33.4	33.4	84	29.1	2	5	248	0.00	29.727 
13:40	33.4	33.4	33.4	84	29.1	2	6	270	0.00	29.727 
13:45	33.2	33.2	33.2	84	28.9	2	3	292	0.00	29.725 
13:50	33.2	33.2	33.2	84	28.9	2	4	270	0.00	29.725 
13:55	33.1	33.1	33.1	84	28.8	2	6	292	0.00	29.725 
14:00	33.1	33.1	33.1	85	29.1	2	4	270	0.00	29.723 
14:05	33.1	33.1	33.1	85	29.1	1	3	270	0.00	29.723 
14:10	33.2	33.2	33.2	85	29.2	1	3	270	0.00	29.723 
14:15	33.1	33.1	33.1	85	29.1	1	5	270	0.00	29.726 
14:20	33.1	33.1	33.1	85	29.1	1	5	248	0.00	29.726 
14:25	33.1	33.1	33.1	85	29.1	1	4	248	0.00	29.726 
14:30	32.9	32.9	32.9	85	28.9	1	3	270	0.00	29.731 
14:35	32.9	32.9	32.9	86	29.2	1	3	248	0.00	29.731 
14:40	32.9	32.9	32.9	86	29.2	1	2	315	0.00	29.731 
14:45	32.9	32.9	32.9	86	29.2	1	2	315	0.00	29.736 
14:50	33.1	33.1	33.1	86	29.4	1	5	248	0.00	29.736 
14:55	33.1	33.1	33.1	86	29.4	1	3	248	0.00	29.736 
15:00	33.1	33.1	33.1	86	29.4	2	4	248	0.00	29.746 
15:05	33.1	33.1	33.1	86	29.4	1	4	248	0.00	29.746 
15:10	33.1	33.1	33.1	86	29.4	1	5	248	0.00	29.746 
15:15	32.9	32.9	32.9	86	29.2	2	4	248	0.00	29.747 
15:20	32.9	32.9	32.9	86	29.2	1	7	248	0.00	29.747 
15:25	33.1	33.1	33.1	86	29.4	0	3	248	0.00	29.747 
15:30	32.9	32.9	32.9	85	28.9	1	3	248	0.00	29.745 
15:35	32.9	32.9	32.9	86	29.2	1	5	248	0.00	29.745 
15:40	32.9	32.9	32.9	85	28.9	1	3	248	0.00	29.745 
15:45	33.1	33.1	33.1	86	29.4	1	3	248	0.00	29.745 
15:50	33.1	33.1	33.1	86	29.4	1	3	248	0.00	29.745 
15:55	33.1	33.1	33.1	86	29.4	0	2	248	0.00	29.745 
16:00	33.1	33.1	33.1	85	29.1	1	3	248	0.00	29.746 
16:05	33.1	33.1	33.1	85	29.1	1	3	248	0.00	29.746 
16:10	33.1	33.1	33.1	85	29.1	1	3	248	0.00	29.746 
16:15	33.1	33.1	33.1	85	29.1	1	3	248	0.00	29.748 
16:20	33.1	33.1	33.1	85	29.1	1	3	248	0.00	29.748 
16:25	33.1	33.1	33.1	85	29.1	1	3	248	0.00	29.748 
16:30	33.1	33.1	33.1	85	29.1	2	4	270	0.00	29.752 
16:35	32.9	32.9	32.9	85	28.9	0	2	270	0.00	29.752 
16:40	32.9	32.9	32.9	85	28.9	1	3	270	0.00	29.752 
16:45	33.1	33.1	33.1	86	29.4	1	3	270	0.00	29.761 
16:50	32.9	32.9	32.9	86	29.2	2	4	270	0.00	29.761 
16:55	32.9	32.9	32.9	86	29.2	1	4	270	0.00	29.761 
17:00	32.9	32.9	32.9	86	29.2	1	3	270	0.00	29.767 
17:05	32.9	32.9	32.9	86	29.2	2	4	270	0.00	29.767 
17:10	32.8	32.8	32.8	86	29.1	1	3	270	0.00	29.767 
17:15	32.8	32.8	32.8	87	29.4	1	2	270	0.00	29.780 
17:20	32.9	32.9	32.9	87	29.5	0	2	270	0.00	29.780 
17:25	32.9	32.9	32.9	87	29.5	1	2	270	0.00	29.780 
17:30	32.8	32.8	32.8	87	29.4	1	3	270	0.00	29.787 
17:35	32.8	32.8	32.8	87	29.4	2	5	270	0.00	29.787 
17:40	32.8	32.8	32.8	87	29.4	0	3	248	0.00	29.787 
17:45	32.8	32.8	32.8	87	29.4	1	5	270	0.00	29.796 
17:50	32.8	32.8	32.8	87	29.4	1	3	270	0.00	29.796 
17:55	32.7	32.7	32.7	87	29.3	1	3	248	0.00	29.796 
18:00	32.7	32.7	32.7	87	29.3	1	3	315	0.00	29.795 
18:05	32.7	32.7	32.7	88	29.5	1	3	270	0.00	29.795 
18:10	32.7	32.7	32.7	88	29.5	1	3	270	0.00	29.795 
18:15	32.7	32.7	32.7	88	29.5	1	3	248	0.00	29.796 
18:20	32.5	32.5	32.5	88	29.3	0	2	248	0.00	29.796 
18:25	32.5	32.5	32.5	88	29.3	1	3	248	0.00	29.796 
18:30	32.5	32.5	32.5	88	29.3	1	3	292	0.00	29.803 
18:35	32.5	32.5	32.5	88	29.3	0	2	292	0.00	29.803 
18:40	32.5	32.5	32.5	88	29.3	0	3	292	0.00	29.803 
18:45	32.5	32.5	32.5	88	29.3	1	3	292	0.00	29.809 
18:50	32.5	32.5	32.5	88	29.3	1	3	270	0.00	29.809 
18:55	32.5	32.5	32.5	88	29.3	1	4	270	0.00	29.809 
19:00	32.5	32.5	32.5	88	29.3	0	2	270	0.00	29.816 
19:05	32.5	32.5	32.5	88	29.3	0	2	270	0.00	29.816 
19:10	32.5	32.5	32.5	88	29.3	1	3	248	0.00	29.816 
19:15	32.5	32.5	32.5	88	29.3	1	2	248	0.00	29.827 
19:20	32.5	32.5	32.5	88	29.3	1	3	248	0.00	29.827 
19:25	32.7	32.7	32.7	88	29.5	0	2	248	0.00	29.827 
19:30	32.7	32.7	32.7	88	29.5	0	2	248	0.00	29.830 
19:35	32.7	32.7	32.7	88	29.5	0	2	248	0.00	29.830 
19:40	32.7	32.7	32.7	88	29.5	0	2	248	0.00	29.830 
19:45	32.7	32.7	32.7	88	29.5	1	3	248	0.00	29.833 
19:50	32.8	32.8	32.8	88	29.6	0	2	248	0.00	29.833 
19:55	32.8	32.8	32.8	88	29.6	0	2	248	0.00	29.833 
20:00	32.8	32.8	32.8	89	29.9	1	3	248	0.00	29.839 
20:05	32.8	32.8	32.8	89	29.9	0	3	248	0.00	29.839 
20:10	32.8	32.8	32.8	89	29.9	0	2	248	0.00	29.839 
20:15	32.9	32.9	32.9	89	30.0	0	1	248	0.00	29.842 
20:20	32.9	32.9	32.9	89	30.0	0	2	248	0.00	29.842 
20:25	32.9	32.9	32.9	89	30.0	0	2	248	0.00	29.842 
20:30	32.9	32.9	32.9	89	30.0	0	1	248	0.00	29.846 
20:35	32.9	32.9	32.9	89	30.0	0	1	248	0.00	29.846 
20:40	32.9	32.9	32.9	89	30.0	0	1	248	0.00	29.846 
20:45	32.9	32.9	32.9	89	30.0	0	2	248	0.00	29.848 
20:50	32.9	32.9	32.9	90	30.3	0	0	---	0.00	29.848 
20:55	32.9	32.9	32.9	90	30.3	0	1	248	0.00	29.848 
21:00	32.9	32.9	32.9	89	30.0	0	3	248	0.00	29.856 
21:05	33.1	33.1	33.1	90	30.5	0	1	248	0.00	29.856 
21:10	33.1	33.1	33.1	90	30.5	0	1	248	0.00	29.856 
21:15	33.1	33.1	33.1	90	30.5	0	1	248	0.00	29.861 
21:20	33.1	33.1	33.1	90	30.5	0	2	248	0.00	29.861 
21:25	33.2	33.2	33.2	90	30.6	0	2	248	0.00	29.861 
21:30	33.2	33.2	33.2	90	30.6	0	1	248	0.00	29.862 
21:35	33.2	33.2	33.2	90	30.6	0	2	248	0.00	29.862 
21:40	33.2	33.2	33.2	90	30.6	0	2	248	0.00	29.862 
21:45	33.2	33.2	33.2	90	30.6	0	1	248	0.00	29.862 
21:50	33.2	33.2	33.2	90	30.6	0	1	248	0.00	29.862 
21:55	33.1	33.1	33.1	90	30.5	0	2	248	0.00	29.862 
22:00	33.1	33.1	33.1	90	30.5	0	1	248	0.00	29.873 
22:05	33.1	33.1	33.1	90	30.5	0	1	248	0.00	29.873 
22:10	33.1	33.1	33.1	90	30.5	0	1	248	0.00	29.873 
22:15	33.1	33.1	33.1	90	30.5	0	1	248	0.00	29.877 
22:20	33.1	33.1	33.1	90	30.5	0	1	248	0.00	29.877 
22:25	33.2	33.2	33.2	90	30.6	0	1	248	0.00	29.877 
22:30	33.2	33.2	33.2	90	30.6	0	2	248	0.00	29.882 
22:35	33.2	33.2	33.2	90	30.6	0	1	248	0.00	29.882 
22:40	33.2	33.2	33.2	90	30.6	0	1	248	0.00	29.882 
22:45	33.2	33.2	33.2	90	30.6	0	1	292	0.00	29.888 
22:50	33.2	33.2	33.2	90	30.6	0	2	292	0.00	29.888 
22:55	33.2	33.2	33.2	90	30.6	0	2	292	0.00	29.888 
23:00	33.2	33.2	33.2	90	30.6	0	1	292	0.00	29.892 
23:05	33.2	33.2	33.2	90	30.6	0	2	292	0.00	29.892 
23:10	33.2	33.2	33.2	90	30.6	0	1	292	0.00	29.892 
23:15	33.1	33.1	33.1	90	30.5	0	1	292	0.00	29.896 
23:20	33.1	33.1	33.1	90	30.5	0	2	292	0.00	29.896 
23:25	33.1	33.1	33.1	90	30.5	0	2	292	0.00	29.896 
23:30	33.1	33.1	33.1	90	30.5	0	2	292	0.00	29.897 
23:35	33.1	33.1	33.1	90	30.5	0	2	292	0.00	29.897 
23:40	33.2	33.2	33.2	90	30.6	0	1	292	0.00	29.897 
23:45	33.2	33.2	33.2	90	30.6	0	2	292	0.00	29.911 
23:50	33.2	33.2	33.2	90	30.6	1	3	248	0.00	29.911 
23:55	33.2	33.2	33.2	90	30.6	1	3	248	0.00	29.911 

CoCoRaHS
IN-AL-39
A2 Web Hosting
Creative Commons License
GoDaddy
search engine by freefind advanced

loaded 2018-11-16 10:41:13 • last modified 2010-11-18 10:43:29
Privacy PolicyDisclaimer
• wx.awcolley.com is powered by PmWiki v.2002016 •
• all content (unless otherwise noted) © 2018 A W Colley